Delta Virtual Airport Information Service

Edinburgh Airport

ICAO: EGPH Country: United Kingdom
Latitude: 55.95 Longitude: -3.3725
Latest Arrival : DAC678 (VMMC-EGPH) Latest Departure : DAC493 (EGPH-SBPA)


WX CaptureLIVE
Data provided by noaa.gov | Fetched at 13:24:09

METAR : EGPH 281750Z VRB02KT 1600 BR OVC002 11/11 Q0995

TAF : EGPH 281759Z 2818/2918 05005KT 9999 FEW004 SCT040 TEMPO 2818/2822 3000 -RA BR BKN004 PROB40 TEMPO 2818/2822 1200 BKN001 TEMPO 2822/2911 7000 -RA BKN010 PROB30 TEMPO 2822/2911 4000 RA SHRA BKN006 TEMPO 2911/2918 5000 RA BKN012 PROB40 TEMPO 2913/2917 2000 +RA BKN004 BECMG 2914/2917 27012KT TEMPO 2914/2917 28015G25KT


Runway Data for EGPH
Data provided by openaviationdata.com

Runway ID Mag Var Hdg Length Elevation Surface ILS Freq ILS Id ILS Slope
6 -3 61° 8384 ft 135 ft Asphalt 108.9 IVG 3
12 -3 121° 5919 ft 135 ft Asphalt -- -- --
24 -3 241° 8384 ft 135 ft Asphalt 108.9 ITH 3
30 -3 301° 5919 ft 135 ft Asphalt -- -- --

Edinburgh Airport, United Kingdom
Use only for reference purposes



Not for navigational purposes.